»·PEaware :: N275ND KSNA-KBUR

N275ND :: KSNA-KBUR

FLIGHT INFORMATION

Flight Status: Arrived
Operator: Privately registered:
United States
More flights under this callsign
Pilot: John A. (19135)
Aircraft: CESSNA 172 SKYHAWK
(C172)
More flights by this aircraft type
Origin: KSNA John Wayne-Orange Co
United States
Destination: KBUR Bob Hope-Burbank
United States
More flights between these airports :: More routes between these airports
Route: +SLI V23 POPPR SMO125R SMO SMO311R SILEX
File this flight plan on PilotEdge
Remarks: I-3 Rating
Altitude:
(Current/Filed)
4,000ft
Speed:
(Current/Filed)
115kts
Departed: 31-Jul-19 09:50 AM
Arrived: 31-Jul-19 11:21 AM
Distance/Time
Traveled:
0nm/1:31
Distance/Time
To Go:
Arrived

Flight Plot

Page will automatically refresh every two minutes.


Map Options




Map Legend


Flown Route
Filed Route
Departure Airport
Arrival Airport
Navaid (VOR, NDB)
Fix

Horizontal Profiles

Position Reports

Time Latitude Longitude Heading Altitude Ground
Speed
31-Jul-19 08:54 33.667730 -117.870514 221 60ft 0kts
31-Jul-19 08:55 33.667730 -117.870514 221 60ft 0kts
31-Jul-19 08:56 33.667730 -117.870514 221 60ft 0kts
31-Jul-19 08:57 33.667730 -117.870514 221 60ft 0kts
31-Jul-19 08:58 33.667730 -117.870514 221 60ft 0kts
31-Jul-19 08:59 33.667730 -117.870514 221 60ft 0kts
31-Jul-19 09:00 33.667730 -117.870514 221 60ft 0kts
31-Jul-19 09:01 33.667730 -117.870514 221 60ft 0kts
31-Jul-19 09:02 33.667730 -117.870514 221 60ft 0kts
31-Jul-19 09:03 33.667730 -117.870514 221 60ft 0kts
31-Jul-19 09:04 33.667730 -117.870514 221 60ft 0kts
31-Jul-19 09:05 33.667730 -117.870514 221 60ft 0kts
31-Jul-19 09:06 33.667730 -117.870514 221 60ft 0kts
31-Jul-19 09:07 33.667730 -117.870514 221 60ft 0kts
31-Jul-19 09:08 33.667730 -117.870514 221 60ft 0kts
31-Jul-19 09:09 33.667730 -117.870514 221 60ft 0kts
31-Jul-19 09:10 33.667730 -117.870514 221 60ft 0kts
31-Jul-19 09:11 33.667730 -117.870514 221 60ft 0kts
31-Jul-19 09:12 33.667730 -117.870514 221 60ft 0kts
31-Jul-19 09:13 33.667730 -117.870514 221 60ft 0kts
31-Jul-19 09:14 33.667730 -117.870514 221 60ft 0kts
31-Jul-19 09:15 33.667730 -117.870514 221 60ft 0kts
31-Jul-19 09:16 33.667730 -117.870514 221 60ft 0kts
31-Jul-19 09:17 33.667730 -117.870514 221 60ft 0kts
31-Jul-19 09:18 33.667730 -117.870514 221 60ft 0kts
31-Jul-19 09:19 33.667730 -117.870514 221 60ft 0kts
31-Jul-19 09:20 33.667730 -117.870514 221 60ft 0kts
31-Jul-19 09:21 33.667730 -117.870514 221 60ft 0kts
31-Jul-19 09:22 33.667730 -117.870514 221 60ft 0kts
31-Jul-19 09:23 33.667730 -117.870514 221 60ft 0kts
31-Jul-19 09:24 33.667730 -117.870514 221 60ft 0kts
31-Jul-19 09:25 33.667730 -117.870514 221 60ft 0kts
31-Jul-19 09:26 33.667730 -117.870514 221 60ft 0kts
31-Jul-19 09:27 33.667730 -117.870514 221 60ft 0kts
31-Jul-19 09:28 33.667730 -117.870514 221 60ft 0kts
31-Jul-19 09:29 33.667730 -117.870514 221 60ft 0kts
31-Jul-19 09:30 33.667730 -117.870514 221 60ft 0kts
31-Jul-19 09:31 33.667730 -117.870514 221 60ft 0kts
31-Jul-19 09:32 33.667730 -117.870514 221 60ft 0kts
31-Jul-19 09:33 33.667730 -117.870514 221 60ft 0kts
31-Jul-19 09:34 33.667730 -117.870514 221 60ft 0kts
31-Jul-19 09:35 33.667730 -117.870514 221 60ft 0kts
31-Jul-19 09:36 33.667730 -117.870514 221 60ft 0kts
31-Jul-19 09:37 33.667730 -117.870514 221 60ft 0kts
31-Jul-19 09:38 33.667730 -117.870514 221 60ft 0kts
31-Jul-19 09:39 33.667730 -117.870514 221 60ft 0kts
31-Jul-19 09:40 33.667730 -117.870514 221 60ft 0kts
31-Jul-19 09:41 33.667730 -117.870514 221 60ft 0kts
31-Jul-19 09:42 33.667798 -117.870761 311 60ft 0kts
31-Jul-19 09:43 33.668515 -117.871511 28 60ft 8kts
31-Jul-19 09:44 33.673481 -117.867148 9 60ft 26kts
31-Jul-19 09:46 33.677099 -117.865180 27 60ft 7kts
31-Jul-19 09:47 33.679982 -117.863611 306 60ft 0kts
31-Jul-19 09:48 33.679982 -117.863611 305 60ft 0kts
31-Jul-19 09:49 33.679886 -117.864318 202 60ft 11kts
31-Jul-19 09:50 33.665777 -117.878651 229 688ft 83kts
31-Jul-19 09:51 33.653081 -117.900422 237 1639ft 80kts
31-Jul-19 09:52 33.637650 -117.925265 228 2004ft 106kts
31-Jul-19 09:53 33.618306 -117.953822 229 2057ft 109kts
31-Jul-19 09:54 33.597300 -117.981222 197 1969ft 115kts
31-Jul-19 09:55 33.592385 -118.006755 348 2031ft 110kts
31-Jul-19 09:56 33.624064 -118.012002 346 1984ft 127kts
31-Jul-19 09:57 33.659678 -118.019338 340 2053ft 130kts
31-Jul-19 09:58 33.674990 -118.039026 298 1511ft 129kts
31-Jul-19 09:59 33.674990 -118.039026 298 1511ft 129kts
31-Jul-19 10:00 33.674990 -118.039026 298 1511ft 129kts
31-Jul-19 10:01 33.667730 -117.870514 221 60ft 0kts
31-Jul-19 10:02 33.668086 -117.871025 221 59ft 0kts
31-Jul-19 10:03 33.668044 -117.871070 221 60ft 0kts
31-Jul-19 10:04 33.667981 -117.871137 221 60ft 0kts
31-Jul-19 10:05 33.667917 -117.871205 221 60ft 0kts
31-Jul-19 10:05 33.668073 -117.871260 284 60ft 0kts
31-Jul-19 10:07 33.668073 -117.871260 284 60ft 0kts
31-Jul-19 10:07 33.668073 -117.871260 284 60ft 0kts
31-Jul-19 10:08 33.668073 -117.871260 284 60ft 0kts
31-Jul-19 10:10 33.668073 -117.871260 284 60ft 0kts
31-Jul-19 10:10 33.668073 -117.871260 284 60ft 0kts
31-Jul-19 10:11 33.668073 -117.871260 284 60ft 0kts
31-Jul-19 10:12 33.668073 -117.871260 284 60ft 0kts
31-Jul-19 10:13 33.668073 -117.871260 284 60ft 0kts
31-Jul-19 10:14 33.668073 -117.871260 284 60ft 0kts
31-Jul-19 10:15 33.668073 -117.871260 284 60ft 0kts
31-Jul-19 10:16 33.668073 -117.871260 284 60ft 0kts
31-Jul-19 10:17 33.668351 -117.871626 11 60ft 7kts
31-Jul-19 10:18 33.672577 -117.867813 27 60ft 28kts
31-Jul-19 10:19 33.677500 -117.864927 25 60ft 14kts
31-Jul-19 10:20 33.679937 -117.863568 305 60ft 0kts
31-Jul-19 10:21 33.679937 -117.863568 305 60ft 0kts
31-Jul-19 10:22 33.679937 -117.863568 305 60ft 0kts
31-Jul-19 10:23 33.675815 -117.866995 209 130ft 72kts
31-Jul-19 10:24 33.661757 -117.884505 228 982ft 85kts
31-Jul-19 10:25 33.644877 -117.905091 217 1801ft 85kts
31-Jul-19 10:26 33.625335 -117.928040 226 2056ft 102kts
31-Jul-19 10:27 33.604663 -117.955623 228 2269ft 111kts
31-Jul-19 10:28 33.584800 -117.982678 229 2869ft 114kts
31-Jul-19 10:29 33.592272 -118.016666 311 3295ft 99kts
31-Jul-19 10:30 33.606229 -118.045938 297 3990ft 95kts
31-Jul-19 10:31 33.618632 -118.081804 293 4032ft 128kts
31-Jul-19 10:32 33.631544 -118.121775 292 4118ft 127kts
31-Jul-19 10:33 33.640195 -118.163309 287 4102ft 130kts
31-Jul-19 10:34 33.653636 -118.203758 292 4105ft 130kts
31-Jul-19 10:35 33.674891 -118.238748 315 4098ft 132kts
31-Jul-19 10:36 33.683615 -118.248065 320 4108ft 130kts
31-Jul-19 10:37 33.683615 -118.248065 320 4108ft 130kts
31-Jul-19 10:38 33.683615 -118.248065 320 4108ft 130kts
31-Jul-19 10:39 33.683615 -118.248065 320 4108ft 130kts
31-Jul-19 10:40 33.683615 -118.248065 320 4108ft 130kts
31-Jul-19 10:41 33.693104 -118.231488 116 4192ft 130kts
31-Jul-19 10:42 33.677904 -118.189929 110 3988ft 129kts
31-Jul-19 10:43 33.666731 -118.148501 101 3972ft 131kts
31-Jul-19 10:44 33.656502 -118.106851 98 3983ft 133kts
31-Jul-19 10:45 33.660715 -118.063143 67 3925ft 133kts
31-Jul-19 10:46 33.666650 -118.019705 89 3899ft 133kts
31-Jul-19 10:47 33.672137 -117.977011 73 3977ft 130kts
31-Jul-19 10:48 33.681235 -117.935258 100 3952ft 132kts
31-Jul-19 10:49 33.664298 -117.897552 132 4012ft 129kts
31-Jul-19 10:50 33.642676 -117.912929 282 3989ft 130kts
31-Jul-19 10:51 33.671748 -117.938201 326 3990ft 131kts
31-Jul-19 10:52 33.702238 -117.962290 327 3985ft 130kts
31-Jul-19 10:53 33.732335 -117.986594 318 3971ft 132kts
31-Jul-19 10:54 33.758482 -118.016179 311 4039ft 131kts
31-Jul-19 10:55 33.781025 -118.049420 293 4001ft 134kts
31-Jul-19 10:56 33.793531 -118.090592 302 3994ft 132kts
31-Jul-19 10:57 33.805410 -118.132762 282 3936ft 133kts
31-Jul-19 10:58 33.814433 -118.175484 287 3944ft 132kts
31-Jul-19 10:59 33.827405 -118.216574 291 3946ft 132kts
31-Jul-19 11:00 33.838781 -118.258547 286 3928ft 132kts
31-Jul-19 11:01 33.855389 -118.297435 301 3921ft 130kts
31-Jul-19 11:02 33.880197 -118.327392 338 4020ft 126kts
31-Jul-19 11:03 33.910403 -118.351294 314 3956ft 131kts
31-Jul-19 11:04 33.938206 -118.379814 321 3953ft 131kts
31-Jul-19 11:05 33.967155 -118.406216 324 3993ft 130kts
31-Jul-19 11:06 33.990144 -118.431877 325 3982ft 133kts
31-Jul-19 11:07 34.020290 -118.455837 323 4081ft 130kts
31-Jul-19 11:08 34.047146 -118.486028 319 4137ft 129kts
31-Jul-19 11:09 34.078803 -118.509580 330 4036ft 133kts
31-Jul-19 11:10 34.108802 -118.535915 313 4088ft 133kts
31-Jul-19 11:11 34.137569 -118.563168 321 3882ft 127kts
31-Jul-19 11:12 34.164504 -118.583739 329 3658ft 117kts
31-Jul-19 11:13 34.180455 -118.573412 108 3714ft 106kts
31-Jul-19 11:14 34.196663 -118.544353 89 3586ft 114kts
31-Jul-19 11:15 34.199818 -118.506238 103 3219ft 104kts
31-Jul-19 11:16 34.195004 -118.475140 91 2521ft 97kts
31-Jul-19 11:17 34.197585 -118.444610 84 1998ft 90kts
31-Jul-19 11:18 34.197855 -118.415714 80 1609ft 88kts
31-Jul-19 11:19 34.197809 -118.386736 93 1168ft 80kts
31-Jul-19 11:20 34.197822 -118.364248 89 780ft 28kts
31-Jul-19 11:21 34.198873 -118.360432 334 780ft 0kts
31-Jul-19 11:22 34.198873 -118.360432 334 780ft 0kts
31-Jul-19 11:23 34.198873 -118.360432 334 780ft 0kts
31-Jul-19 11:24 34.198873 -118.360432 334 780ft 0kts
31-Jul-19 11:25 34.198873 -118.360432 334 780ft 0kts
31-Jul-19 11:26 33.681042 -117.861313 286 60ft 0kts
31-Jul-19 11:27 33.682506 -117.860786 292 60ft 0kts
31-Jul-19 11:28 33.668086 -117.871025 221 60ft 0kts
31-Jul-19 11:29 33.668086 -117.871025 221 60ft 0kts
31-Jul-19 11:30 33.668086 -117.871025 221 60ft 0kts
31-Jul-19 11:31 33.668086 -117.871025 221 60ft 0kts
31-Jul-19 11:32 33.668086 -117.871025 221 60ft 0kts
31-Jul-19 11:33 33.668086 -117.871025 221 60ft 0kts
31-Jul-19 11:34 33.668086 -117.871025 221 60ft 0kts

Navigation Log

Ident Type
Flight plan parsing failed, navigation log unavailable